Latest Coastal Weather Observations for Warrnambool

IDV60701

Issued at 7:55 pm EST Friday 1 August 2014 (issued every 10 minutes, with the page automatically refreshed every 10 minutes)

About coastal observations | Map of coastal stations | Coastal observations for VIC | Marine services | Other Formats
Station Details ID: 090186 Name: WARRNAMBOOL AIRPORT NDB Lat: -38.29 Lon: 142.45 Height: 70.8 m
Data from the previous 72 hours. | See also: Recent months at Warrnambool
Date/Time
EST
Temp

°C
Wind Pressure Rain
since 9am
mm
Weather Cloud Vis
km
Sea
Height
m
Swell
Dir
 
Speed
knots
Gust
knots
hPa Trend Height
m
Period
s
Dir
01/07:30pm 7.6 SSW 17 25 1019.8 - 5.0 - - - - - - -
01/07:00pm 6.4 S 19 26 1019.2 - 4.8 - - - - - - -
01/06:54pm 6.3 SSW 19 26 1019.1 - 4.8 - - - - - - -
01/06:30pm 6.8 S 10 15 1018.3 - 4.6 - - - - - - -
01/06:00pm 5.9 S 15 21 1017.9 - 4.6 Recent precip. - - - - - -
01/05:49pm 5.9 SSW 17 30 1018.1 - 4.2 - - - - - - -
01/05:48pm 7.0 SSW 16 25 1017.9 - 4.0 - - - - - - -
01/05:30pm 6.0 WSW 11 15 1016.8 - 4.0 - - - - - - -
01/05:00pm 6.5 W 8 14 1016.1 - 1.4 - - - - - - -
01/04:30pm 5.4 S 16 21 1015.8 - 1.4 - - - - - - -
01/04:10pm 8.3 SSW 19 29 1014.9 - 1.2 - - - - - - -
01/04:00pm 8.5 SW 23 30 1014.7 - 1.2 - - - - - - -
01/03:32pm 8.7 SW 25 35 1013.9 - 1.2 - - - - - - -
01/03:30pm 9.2 SW 24 31 1013.7 - 1.2 - - - - - - -
01/03:00pm 8.8 SW 23 31 1012.8 - 1.2 - - - - - - -
01/02:30pm 9.1 SW 24 32 1011.8 - 1.2 - - - - - - -
01/02:19pm 9.0 SW 22 32 1011.6 - 1.2 - - - - - - -
01/02:00pm 8.9 SW 27 36 1011.2 - 1.2 - - - - - - -
01/01:53pm 8.2 SW 27 36 1010.9 - 1.2 - - - - - - -
01/01:30pm 7.2 SSW 27 38 1010.7 - 1.2 - - - - - - -
01/01:07pm 8.2 SSW 26 36 1010.0 - 1.2 - - - - - - -
01/01:00pm 8.2 SW 27 36 1010.2 - 1.2 - - - - - - -
01/12:36pm 9.4 SW 24 34 1009.2 - 1.2 - - - - - - -
01/12:30pm 9.2 SW 26 33 1009.2 - 1.2 - - - - - - -
01/12:02pm 8.9 SW 25 36 1008.5 - 1.2 - - - - - - -
01/12:00pm 8.9 SW 25 33 1008.6 - 1.2 Recent precip. - - - - - -
01/11:32am 8.2 SSW 28 38 1007.6 - 1.2 - - - - - - -
01/11:30am 8.0 SW 28 37 1007.5 - 1.2 - - - - - - -
01/11:18am 7.8 SSW 15 31 1007.2 - 1.0 - - - - - - -
01/11:00am 6.9 SW 17 23 1006.7 - 1.0 - - - - - - -
01/10:43am 5.8 S 17 21 1006.5 - 1.0 - - - - - - -
01/10:36am 6.6 SSW 30 40 1006.6 - 0.8 - - - - - - -
01/10:35am 6.7 SSW 33 40 1006.5 - 0.8 - - - - - - -
01/10:34am 7.3 SW 19 38 1006.4 - 0.8 - - - - - - -
01/10:30am 7.9 SW 16 22 1005.9 - 0.8 - - - - - - -
01/10:00am 5.5 S 27 37 1005.3 - 0.8 - - - - - - -
01/09:53am 5.5 S 31 36 1005.4 - 0.4 - - - - - - -
01/09:51am 7.6 SSW 19 41 1005.2 - 0.4 - - - - - - -
01/09:30am 6.9 SSW 15 21 1004.3 - 0.4 - - - - - - -
01/09:06am 6.8 WSW 17 32 1003.6 - 0.2 - - - - - - -
01/09:00am 6.2 WSW 14 21 1003.0 - 18.2 Recent precip. - - - - - -
01/08:54am 5.7 WSW 15 25 1002.9 - 18.2 - - - - - - -
01/08:49am 5.4 WSW 18 25 1002.8 - 18.2 - - - - - - -
01/08:45am 5.2 W 21 31 1002.8 - 18.2 - - - - - - -
01/08:44am 5.1 NW 16 31 1002.8 - 18.2 - - - - - - -
01/08:30am 4.8 NW 16 20 1002.2 - 18.0 - - - - - - -
01/08:00am 5.1 NW 17 25 1002.2 - 16.0 - - - - - - -
01/07:30am 5.0 NW 19 27 1001.0 - 16.0 - - - - - - -
01/07:13am 5.1 NW 16 26 1001.0 - 15.6 - - - - - - -
01/07:00am 4.8 NNW 21 30 1000.8 - 15.2 - - - - - - -
01/06:30am 4.6 NNW 18 24 1000.3 - 15.2 - - - - - - -
01/06:00am 4.6 NNW 16 21 1000.2 - 15.2 Recent precip. - - - - - -
01/05:30am 4.8 NW 18 30 1000.8 - 14.8 - - - - - - -
01/05:26am 4.7 NW 16 28 1000.8 - 14.8 - - - - - - -
01/05:00am 4.9 NNW 19 25 999.7 - 13.4 - - - - - - -
01/04:34am 4.7 NNW 20 30 999.2 - 13.4 - - - - - - -
01/04:30am 4.8 NNW 23 30 999.1 - 13.4 - - - - - - -
01/04:23am 5.0 NNW 23 33 999.0 - 13.4 - - - - - - -
01/04:00am 5.2 NNW 22 29 999.4 - 13.4 - - - - - - -
01/03:37am 4.9 NNW 21 32 999.7 - 13.4 - - - - - - -
01/03:30am 5.0 NNW 21 28 999.6 - 13.4 - - - - - - -
01/03:00am 4.4 NNW 19 24 1000.2 - 13.4 Recent precip. - - - - - -
01/02:30am 4.0 N 17 24 1000.4 - 13.4 - - - - - - -
01/02:00am 4.4 NNW 23 31 1000.7 - 13.2 - - - - - - -
01/01:30am 5.8 NW 23 34 1000.9 - 13.2 - - - - - - -
01/01:25am 5.8 NNW 22 32 1000.9 - 13.2 - - - - - - -
01/01:00am 5.6 NNW 21 28 1000.9 - 13.2 - - - - - - -
01/12:30am 5.1 NNW 19 26 1000.9 - 12.8 - - - - - - -
01/12:07am 5.4 NNW 15 27 1001.2 - 12.8 - - - - - - -
01/12:00am 5.4 NNW 11 16 1001.3 - 12.8 Recent precip. - - - - - -
 
Date/Time
EST
Temp

°C
Wind Pressure Rain
since 9am
mm
Weather Cloud Vis
km
Sea
Height
m
Swell
Dir
 
Speed
knots
Gust
knots
hPa Trend Height
m
Period
s
Dir
31/11:30pm 5.2 NW 14 19 1001.2 - 12.8 - - - - - - -
31/11:13pm 5.5 NW 20 30 1001.6 - 12.6 - - - - - - -
31/11:00pm 5.0 NW 15 20 1001.4 - 12.6 - - - - - - -
31/10:30pm 5.3 NW 17 22 1001.0 - 12.6 - - - - - - -
31/10:00pm 5.8 NW 18 25 1000.8 - 12.6 - - - - - - -
31/09:30pm 5.6 NW 14 18 1000.7 - 12.6 - - - - - - -
31/09:00pm 6.0 WNW 18 33 1001.3 - 12.6 Rain - - - - - -
31/08:51pm 6.5 WNW 16 33 1001.0 - 11.6 - - - - - - -
31/08:30pm 6.6 NW 13 19 1000.0 - 11.4 - - - - - - -
31/08:00pm 6.9 W 13 16 1000.0 - 11.0 - - - - - - -
31/07:30pm 6.8 NW 14 17 999.2 - 11.0 - - - - - - -
31/07:00pm 6.6 WNW 10 15 999.3 - 11.0 - - - - - - -
31/06:32pm 6.1 W 16 29 999.6 - 10.8 - - - - - - -
31/06:30pm 7.0 WNW 14 20 999.5 - 10.6 - - - - - - -
31/06:00pm 7.5 WNW 17 28 998.4 - 10.4 Recent precip. - - - - - -
31/05:57pm 7.6 WNW 15 28 998.3 - 10.4 - - - - - - -
31/05:30pm 7.5 WNW 19 28 997.6 - 10.4 - - - - - - -
31/05:27pm 7.4 WNW 19 28 997.6 - 10.4 - - - - - - -
31/05:00pm 7.7 NW 22 36 997.1 - 10.2 - - - - - - -
31/04:52pm 7.8 NW 20 33 996.6 - 10.2 - - - - - - -
31/04:30pm 7.7 NW 21 27 996.7 - 10.2 - - - - - - -
31/04:00pm 6.9 NW 21 26 997.1 - 10.2 - - - - - - -
31/03:39pm 7.6 WNW 19 32 997.4 - 9.6 - - - - - - -
31/03:30pm 7.7 WNW 17 25 997.3 - 9.6 - - - - - - -
31/03:05pm 7.4 WNW 19 31 997.3 - 9.6 - - - - - - -
31/03:00pm 7.5 NW 21 27 997.2 - 9.4 Recent precip. - - - - - -
31/02:30pm 7.9 NW 24 31 996.0 - 9.4 - - - - - - -
31/02:16pm 7.6 NW 22 27 995.9 - 9.2 - - - - - - -
31/02:00pm 7.3 W 22 32 996.5 - 9.2 - - - - - - -
31/01:32pm 7.6 W 27 37 996.4 - 7.6 - - - - - - -
31/01:30pm 7.7 W 28 37 996.4 - 7.6 - - - - - - -
31/01:01pm 7.9 W 26 36 996.0 - 6.6 - - - - - - -
31/01:00pm 8.0 W 26 35 996.1 - 6.6 - - - - - - -
31/12:35pm 8.7 W 19 29 995.6 - 6.0 - - - - - - -
31/12:30pm 8.9 W 20 28 995.3 - 5.8 - - - - - - -
31/12:02pm 9.1 W 26 40 995.8 - 5.2 - - - - - - -
31/12:00pm 9.6 W 25 33 995.9 - 5.2 Rain - - - - - -
31/11:38am 9.9 W 20 34 995.2 - 3.8 - - - - - - -
31/11:30am 9.9 W 17 23 994.9 - 3.0 - - - - - - -
31/11:12am 11.7 W 29 40 994.9 - 0.0 - - - - - - -
31/11:00am 13.9 NNW 31 43 992.8 - 0.0 - - - - - - -
31/10:30am 14.3 NNW 31 45 993.0 - 0.0 - - - - - - -
31/10:00am 13.0 NNW 28 41 993.4 - 0.0 - - - - - - -
31/09:30am 12.8 NNW 28 40 994.0 - 0.0 - - - - - - -
31/09:00am 12.7 NNW 24 34 994.8 - 0.8 - - - - - - -
31/08:30am 12.2 NNW 23 34 995.5 - 0.8 - - - - - - -
31/08:00am 12.0 N 25 36 996.1 - 0.8 - - - - - - -
31/07:30am 12.3 NNW 24 34 996.4 - 0.8 - - - - - - -
31/07:08am 12.3 NNW 23 33 996.6 - 0.8 - - - - - - -
31/07:00am 12.3 NNW 24 33 996.9 - 0.8 - - - - - - -
31/06:30am 12.4 NNW 23 37 997.5 - 0.8 - - - - - - -
31/06:10am 12.8 NNW 21 31 997.5 - 0.8 - - - - - - -
31/06:00am 12.8 NNW 23 30 997.4 - 0.8 - - - - - - -
31/05:37am 12.9 NNW 23 33 997.8 - 0.8 - - - - - - -
31/05:30am 13.0 NNW 24 33 997.8 - 0.8 - - - - - - -
31/05:29am 12.9 NNW 23 33 997.8 - 0.8 - - - - - - -
31/05:00am 13.2 NNW 25 33 998.3 - 0.8 - - - - - - -
31/04:30am 12.6 NNW 19 29 999.5 - 0.8 - - - - - - -
31/04:28am 12.7 NNW 19 29 999.6 - 0.8 - - - - - - -
31/04:00am 13.3 NNW 23 31 1000.0 - 0.8 - - - - - - -
31/03:49am 13.3 NNW 21 31 1000.0 - 0.8 - - - - - - -
31/03:30am 13.2 NNW 21 26 1000.5 - 0.8 - - - - - - -
31/03:00am 13.0 NNW 22 30 1001.2 - 0.8 - - - - - - -
31/02:30am 13.1 NNW 22 28 1001.4 - 0.8 - - - - - - -
31/02:00am 13.3 NNW 22 33 1002.0 - 0.8 - - - - - - -
31/01:58am 13.3 NNW 22 33 1001.9 - 0.8 - - - - - - -
31/01:30am 13.0 NNW 21 28 1002.4 - 0.8 - - - - - - -
31/01:00am 13.2 NNW 22 31 1003.4 - 0.8 - - - - - - -
31/12:30am 12.9 NNW 21 28 1003.9 - 0.8 - - - - - - -
31/12:00am 12.5 NNW 20 29 1004.7 - 0.8 - - - - - - -
 
Date/Time
EST
Temp

°C
Wind Pressure Rain
since 9am
mm
Weather Cloud Vis
km
Sea
Height
m
Swell
Dir
 
Speed
knots
Gust
knots
hPa Trend Height
m
Period
s
Dir
30/11:30pm 12.3 NW 23 30 1005.0 - 0.8 - - - - - - -
30/11:00pm 13.4 NNW 25 36 1005.4 - 0.8 - - - - - - -
30/10:55pm 13.4 NNW 25 36 1005.3 - 0.8 - - - - - - -
30/10:30pm 13.2 NNW 22 30 1005.8 - 0.8 - - - - - - -
30/10:00pm 13.5 NNW 22 30 1006.4 - 0.8 - - - - - - -
30/09:30pm 13.0 NW 20 27 1006.6 - 0.8 - - - - - - -
30/09:00pm 12.7 NW 21 32 1007.0 - 0.8 - - - - - - -
30/08:30pm 12.8 NNW 25 35 1006.9 - 0.8 - - - - - - -
30/08:23pm 13.0 NNW 22 34 1007.0 - 0.8 - - - - - - -
30/08:00pm 12.5 NW 18 23 1007.2 - 0.8 - - - - - - -
30/07:38pm 13.3 NW 21 32 1007.3 - 0.8 - - - - - - -
30/07:30pm 13.5 NW 20 26 1007.3 - 0.8 - - - - - - -
30/07:00pm 13.1 NNW 19 30 1007.3 - 0.8 - - - - - - -
30/06:56pm 13.2 NNW 18 30 1007.2 - 0.8 - - - - - - -
30/06:30pm 13.5 NW 19 28 1007.4 - 0.8 - - - - - - -
30/06:15pm 13.5 NNW 17 27 1007.3 - 0.8 - - - - - - -
30/06:00pm 13.5 NW 18 23 1007.5 - 0.8 - - - - - - -
30/05:31pm 13.7 NW 20 30 1007.3 - 0.8 - - - - - - -
30/05:30pm 13.8 NW 21 30 1007.3 - 0.8 - - - - - - -
30/05:00pm 14.3 NW 19 27 1007.4 - 0.8 - - - - - - -
30/04:30pm 14.3 NW 17 26 1007.4 - 0.8 - - - - - - -
30/04:00pm 14.5 NW 18 25 1007.5 - 0.8 - - - - - - -
30/03:30pm 14.8 NW 23 29 1007.6 - 0.8 - - - - - - -
30/03:00pm 14.7 NW 20 30 1007.9 - 0.8 - - - - - - -
30/02:36pm 14.9 NW 21 32 1007.8 - 0.8 - - - - - - -
30/02:30pm 14.6 NW 20 27 1007.8 - 0.8 - - - - - - -
30/02:00pm 13.7 WNW 18 29 1008.2 - 0.8 - - - - - - -
30/01:43pm 14.1 WNW 15 25 1008.2 - 0.8 - - - - - - -
30/01:30pm 13.6 WNW 15 20 1008.5 - 0.8 - - - - - - -
30/01:00pm 15.1 WNW 17 27 1008.8 - 0.2 - - - - - - -
30/12:57pm 15.3 WNW 19 29 1008.7 - 0.2 - - - - - - -
30/12:30pm 15.5 NW 25 34 1008.9 - 0.2 - - - - - - -
30/12:00pm 15.4 NW 21 28 1009.6 - 0.2 - - - - - - -
30/11:30am 15.0 NW 21 31 1009.9 - 0.2 - - - - - - -
30/11:00am 14.4 NW 21 31 1010.4 - 0.2 - - - - - - -
30/10:59am 14.6 NW 20 30 1010.4 - 0.2 - - - - - - -
30/10:30am 13.6 NNW 19 26 1010.5 - 0.0 - - - - - - -
30/10:00am 13.3 NNW 16 21 1010.7 - 0.0 - - - - - - -
30/09:33am 12.9 NW 17 27 1010.6 - 0.0 - - - - - - -
30/09:30am 13.0 NW 16 23 1010.7 - 0.0 - - - - - - -
30/09:00am 12.4 NW 15 20 1010.9 - 5.8 - - - - - - -
30/08:30am 12.3 NNW 14 18 1010.6 - 5.8 - - - - - - -
30/08:00am 11.8 NW 16 24 1010.5 - 5.8 - - - - - - -
30/07:30am 11.5 NNW 14 18 1010.0 - 5.8 - - - - - - -
30/07:00am 11.4 NNW 15 19 1009.8 - 5.8 - - - - - - -
30/06:30am 11.3 NNW 14 19 1009.7 - 5.8 - - - - - - -
30/06:00am 11.1 NNW 14 20 1009.7 - 5.8 - - - - - - -
30/05:30am 11.1 NW 14 18 1009.9 - 5.8 - - - - - - -
30/05:00am 10.9 NW 13 19 1010.1 - 5.8 - - - - - - -
30/04:30am 10.9 NW 13 17 1010.0 - 5.8 - - - - - - -
30/04:00am 11.4 NW 15 21 1010.1 - 5.8 - - - - - - -
30/03:30am 10.9 NW 12 16 1010.3 - 5.8 - - - - - - -
30/03:00am 10.8 NW 14 17 1010.6 - 5.8 - - - - - - -
30/02:30am 11.2 NW 12 16 1010.5 - 5.8 - - - - - - -
30/02:00am 11.6 NW 13 16 1010.7 - 5.8 - - - - - - -
30/01:30am 12.0 WNW 11 17 1010.6 - 5.8 - - - - - - -
30/01:03am 12.1 WNW 15 25 1010.4 - 5.8 - - - - - - -
30/01:00am 12.1 WNW 16 25 1010.5 - 5.8 - - - - - - -
30/12:30am 12.4 WNW 15 22 1010.2 - 5.8 - - - - - - -
30/12:00am 12.4 WNW 10 16 1010.3 - 5.8 Recent precip. - - - - - -
 
Date/Time
EST
Temp

°C
Wind Pressure Rain
since 9am
mm
Weather Cloud Vis
km
Sea
Height
m
Swell
Dir
 
Speed
knots
Gust
knots
hPa Trend Height
m
Period
s
Dir
29/11:30pm 12.4 WNW 12 17 1010.1 - 5.4 - - - - - - -
29/11:00pm 12.7 WNW 11 17 1010.0 - 3.0 - - - - - - -
29/10:30pm 12.7 WNW 17 23 1009.7 - 3.0 - - - - - - -
29/10:00pm 12.5 NW 16 23 1009.5 - 3.0 - - - - - - -
29/09:30pm 12.7 NW 16 21 1009.1 - 2.8 - - - - - - -
29/09:00pm 13.4 WNW 14 23 1009.0 - 2.8 - - - - - - -
29/08:30pm 13.1 WNW 15 24 1008.7 - 2.8 - - - - - - -
29/08:00pm 13.0 NW 15 20 1008.5 - 2.8 - - - - - - -

Other Formats:

Comma delimited format used in spreadsheet applications
http://www.bom.gov.au/fwo/IDV60701/IDV60701.94837.axf

JavaScript Object Notation format (JSON) in row-major order
http://www.bom.gov.au/fwo/IDV60701/IDV60701.94837.json